الصفحة الرئيسية
METAR-TAF:

METAR-TAF

مطار :

Trevico, إيطاليا

دائرة عرض: 41-03N, خط طول: 015-14E, ارتفاع: 1085 متر

مراقبة الطقس الحالي

تاريخ ووقت الإصدار 1ساعة و 14 دقيقة قبل الساعة 04:55UTC
ريح 9 عقدة من الغرب
درجة الحرارة 7°درجة مئوية
الرطوبة 29%
ضغط 1020 hPa
الرؤية 10 كم أو أكثر
غيوم مفككة على ارتفاع 1600 قدم

METAR: LIRT 110455Z 27009KT 9999 BKN016 07/M10 Q1020 RMK BKN MON LIB VAL NIL VIS MIN 9999

زمن: 08:09 (06:09 UTC)


TAF: مفقودة

أرصاد الطقس والتوقعات من أكثر من 4000 مطار (تقارير الطقس للمطار METAR والتنبؤ بالطقس بالمطارTAF).

المحطات المتاحة هي النقط الصفراء والحمراء على الخريطة.

حرك المؤشر فوق النقطة لمعرفة اسم المحطة.

ثم انقر لمعرفة أرصاد وتوقعات الطقس.

لتغيير الخارطة: اضغط على الأزرار الخضراء مع رمز الصليب الأسود للتكبير. على الزر الأخضر مع شرطة للتصغير، أو على الأسهم الخضراء للخرائط المجاورة.


METAR-TAF: